sensor_id;sensor_type;location;lat;lon;timestamp;P1;durP1;ratioP1;P2;durP2;ratioP2
73113;SDS011;61301;51.956;5.876;2022-07-29T00:00:44;1.17;;;0.63;;
73113;SDS011;61301;51.956;5.876;2022-07-29T00:03:10;2.75;;;0.70;;
73113;SDS011;61301;51.956;5.876;2022-07-29T00:05:40;1.80;;;0.50;;
73113;SDS011;61301;51.956;5.876;2022-07-29T00:08:07;2.45;;;1.00;;
73113;SDS011;61301;51.956;5.876;2022-07-29T00:10:34;3.15;;;0.60;;
73113;SDS011;61301;51.956;5.876;2022-07-29T00:13:00;3.55;;;1.00;;
73113;SDS011;61301;51.956;5.876;2022-07-29T00:15:26;2.47;;;0.88;;
73113;SDS011;61301;51.956;5.876;2022-07-29T00:17:53;1.15;;;0.85;;
73113;SDS011;61301;51.956;5.876;2022-07-29T00:20:19;1.13;;;0.88;;
73113;SDS011;61301;51.956;5.876;2022-07-29T00:22:45;3.25;;;0.65;;
73113;SDS011;61301;51.956;5.876;2022-07-29T00:25:11;1.95;;;0.70;;
73113;SDS011;61301;51.956;5.876;2022-07-29T00:27:38;2.55;;;0.65;;
73113;SDS011;61301;51.956;5.876;2022-07-29T00:30:04;2.55;;;0.40;;
73113;SDS011;61301;51.956;5.876;2022-07-29T00:32:33;0.90;;;0.40;;
73113;SDS011;61301;51.956;5.876;2022-07-29T00:34:59;1.42;;;0.80;;
73113;SDS011;61301;51.956;5.876;2022-07-29T00:37:43;3.70;;;1.10;;
73113;SDS011;61301;51.956;5.876;2022-07-29T00:40:09;2.28;;;0.60;;
73113;SDS011;61301;51.956;5.876;2022-07-29T00:42:46;1.70;;;0.85;;
73113;SDS011;61301;51.956;5.876;2022-07-29T00:45:13;2.28;;;0.70;;
73113;SDS011;61301;51.956;5.876;2022-07-29T00:47:40;1.65;;;0.65;;
73113;SDS011;61301;51.956;5.876;2022-07-29T00:50:07;0.52;;;0.40;;
73113;SDS011;61301;51.956;5.876;2022-07-29T00:52:37;1.20;;;0.70;;
73113;SDS011;61301;51.956;5.876;2022-07-29T00:55:06;1.13;;;0.80;;
73113;SDS011;61301;51.956;5.876;2022-07-29T00:57:34;1.88;;;0.73;;
73113;SDS011;61301;51.956;5.876;2022-07-29T01:00:00;3.28;;;0.80;;
73113;SDS011;61301;51.956;5.876;2022-07-29T01:02:28;2.28;;;0.93;;
73113;SDS011;61301;51.956;5.876;2022-07-29T01:04:54;1.77;;;0.47;;
73113;SDS011;61301;51.956;5.876;2022-07-29T01:07:23;2.15;;;0.55;;
73113;SDS011;61301;51.956;5.876;2022-07-29T01:09:51;1.60;;;0.63;;
73113;SDS011;61301;51.956;5.876;2022-07-29T01:12:21;4.03;;;1.38;;
73113;SDS011;61301;51.956;5.876;2022-07-29T01:14:49;1.17;;;0.55;;
73113;SDS011;61301;51.956;5.876;2022-07-29T01:19:51;3.20;;;1.00;;
73113;SDS011;61301;51.956;5.876;2022-07-29T01:28:44;1.95;;;0.80;;
73113;SDS011;61301;51.956;5.876;2022-07-29T01:31:39;1.38;;;0.80;;
73113;SDS011;61301;51.956;5.876;2022-07-29T01:34:36;2.60;;;0.70;;
73113;SDS011;61301;51.956;5.876;2022-07-29T01:37:29;2.85;;;0.90;;
73113;SDS011;61301;51.956;5.876;2022-07-29T01:40:22;0.57;;;0.50;;
73113;SDS011;61301;51.956;5.876;2022-07-29T01:42:52;2.95;;;1.35;;
73113;SDS011;61301;51.956;5.876;2022-07-29T01:45:26;3.67;;;1.00;;
73113;SDS011;61301;51.956;5.876;2022-07-29T01:48:11;2.25;;;0.70;;
73113;SDS011;61301;51.956;5.876;2022-07-29T01:50:46;2.05;;;0.98;;
73113;SDS011;61301;51.956;5.876;2022-07-29T01:53:21;4.30;;;0.90;;
73113;SDS011;61301;51.956;5.876;2022-07-29T01:55:52;1.88;;;0.70;;
73113;SDS011;61301;51.956;5.876;2022-07-29T01:58:19;1.42;;;0.52;;
73113;SDS011;61301;51.956;5.876;2022-07-29T02:00:46;2.35;;;0.75;;
73113;SDS011;61301;51.956;5.876;2022-07-29T02:03:14;1.42;;;0.73;;
73113;SDS011;61301;51.956;5.876;2022-07-29T02:05:42;0.95;;;0.50;;
73113;SDS011;61301;51.956;5.876;2022-07-29T02:08:10;1.15;;;0.93;;
73113;SDS011;61301;51.956;5.876;2022-07-29T02:10:38;4.00;;;1.00;;
73113;SDS011;61301;51.956;5.876;2022-07-29T02:13:06;2.97;;;1.33;;
73113;SDS011;61301;51.956;5.876;2022-07-29T02:15:33;2.95;;;1.30;;
73113;SDS011;61301;51.956;5.876;2022-07-29T02:18:01;0.95;;;0.70;;
73113;SDS011;61301;51.956;5.876;2022-07-29T02:20:38;1.35;;;0.68;;
73113;SDS011;61301;51.956;5.876;2022-07-29T02:23:06;3.55;;;0.95;;
73113;SDS011;61301;51.956;5.876;2022-07-29T02:25:35;1.98;;;0.75;;
73113;SDS011;61301;51.956;5.876;2022-07-29T02:28:03;1.63;;;0.70;;
73113;SDS011;61301;51.956;5.876;2022-07-29T02:30:30;1.15;;;0.65;;
73113;SDS011;61301;51.956;5.876;2022-07-29T02:32:58;2.03;;;0.60;;
73113;SDS011;61301;51.956;5.876;2022-07-29T02:35:25;2.08;;;0.73;;
73113;SDS011;61301;51.956;5.876;2022-07-29T02:37:52;2.03;;;0.70;;
73113;SDS011;61301;51.956;5.876;2022-07-29T02:40:38;1.95;;;0.85;;
73113;SDS011;61301;51.956;5.876;2022-07-29T02:43:07;1.88;;;0.50;;
73113;SDS011;61301;51.956;5.876;2022-07-29T02:45:35;1.10;;;0.50;;
73113;SDS011;61301;51.956;5.876;2022-07-29T02:48:05;2.10;;;0.90;;
73113;SDS011;61301;51.956;5.876;2022-07-29T02:50:34;3.08;;;1.00;;
73113;SDS011;61301;51.956;5.876;2022-07-29T02:53:09;2.20;;;1.00;;
73113;SDS011;61301;51.956;5.876;2022-07-29T02:55:40;0.93;;;0.63;;
73113;SDS011;61301;51.956;5.876;2022-07-29T03:01:01;3.38;;;0.47;;
73113;SDS011;61301;51.956;5.876;2022-07-29T03:03:34;0.82;;;0.40;;
73113;SDS011;61301;51.956;5.876;2022-07-29T03:06:02;1.55;;;0.40;;
73113;SDS011;61301;51.956;5.876;2022-07-29T03:08:33;1.25;;;0.80;;
73113;SDS011;61301;51.956;5.876;2022-07-29T03:11:00;5.38;;;1.10;;
73113;SDS011;61301;51.956;5.876;2022-07-29T03:13:27;4.05;;;1.00;;
73113;SDS011;61301;51.956;5.876;2022-07-29T03:15:54;1.30;;;0.82;;
73113;SDS011;61301;51.956;5.876;2022-07-29T03:18:21;1.75;;;0.60;;
73113;SDS011;61301;51.956;5.876;2022-07-29T03:20:47;2.15;;;0.90;;
73113;SDS011;61301;51.956;5.876;2022-07-29T03:23:18;2.58;;;0.68;;
73113;SDS011;61301;51.956;5.876;2022-07-29T03:25:45;0.70;;;0.60;;
73113;SDS011;61301;51.956;5.876;2022-07-29T03:28:11;2.00;;;1.00;;
73113;SDS011;61301;51.956;5.876;2022-07-29T03:30:37;2.35;;;0.85;;
73113;SDS011;61301;51.956;5.876;2022-07-29T03:33:03;2.25;;;1.20;;
73113;SDS011;61301;51.956;5.876;2022-07-29T03:35:29;2.17;;;1.23;;
73113;SDS011;61301;51.956;5.876;2022-07-29T03:37:57;2.00;;;0.80;;
73113;SDS011;61301;51.956;5.876;2022-07-29T03:40:31;2.45;;;0.90;;
73113;SDS011;61301;51.956;5.876;2022-07-29T03:43:19;0.70;;;0.50;;
73113;SDS011;61301;51.956;5.876;2022-07-29T03:45:47;0.63;;;0.57;;
73113;SDS011;61301;51.956;5.876;2022-07-29T03:48:17;1.02;;;0.57;;
73113;SDS011;61301;51.956;5.876;2022-07-29T03:50:46;2.05;;;0.70;;
73113;SDS011;61301;51.956;5.876;2022-07-29T03:53:12;2.05;;;0.70;;
73113;SDS011;61301;51.956;5.876;2022-07-29T03:55:43;1.30;;;0.70;;
73113;SDS011;61301;51.956;5.876;2022-07-29T03:58:12;0.73;;;0.57;;
73113;SDS011;61301;51.956;5.876;2022-07-29T04:00:40;0.82;;;0.70;;
73113;SDS011;61301;51.956;5.876;2022-07-29T04:03:07;0.65;;;0.40;;
73113;SDS011;61301;51.956;5.876;2022-07-29T04:05:34;0.52;;;0.38;;
73113;SDS011;61301;51.956;5.876;2022-07-29T04:08:00;0.60;;;0.45;;
73113;SDS011;61301;51.956;5.876;2022-07-29T04:10:26;1.88;;;0.77;;
73113;SDS011;61301;51.956;5.876;2022-07-29T04:12:52;0.90;;;0.80;;
73113;SDS011;61301;51.956;5.876;2022-07-29T04:15:18;2.25;;;0.98;;
73113;SDS011;61301;51.956;5.876;2022-07-29T04:17:45;2.13;;;0.95;;
73113;SDS011;61301;51.956;5.876;2022-07-29T04:20:11;4.57;;;1.80;;
73113;SDS011;61301;51.956;5.876;2022-07-29T04:22:40;2.55;;;1.05;;
73113;SDS011;61301;51.956;5.876;2022-07-29T04:25:06;2.83;;;1.13;;
73113;SDS011;61301;51.956;5.876;2022-07-29T04:27:32;2.50;;;0.63;;
73113;SDS011;61301;51.956;5.876;2022-07-29T04:29:59;1.90;;;0.80;;
73113;SDS011;61301;51.956;5.876;2022-07-29T04:32:25;1.45;;;0.60;;
73113;SDS011;61301;51.956;5.876;2022-07-29T04:34:52;0.57;;;0.50;;
73113;SDS011;61301;51.956;5.876;2022-07-29T04:37:18;1.30;;;0.60;;
73113;SDS011;61301;51.956;5.876;2022-07-29T04:39:44;0.90;;;0.80;;
73113;SDS011;61301;51.956;5.876;2022-07-29T04:42:10;1.17;;;0.55;;
73113;SDS011;61301;51.956;5.876;2022-07-29T04:44:36;0.77;;;0.43;;
73113;SDS011;61301;51.956;5.876;2022-07-29T04:47:02;0.90;;;0.60;;
73113;SDS011;61301;51.956;5.876;2022-07-29T04:49:28;1.00;;;0.70;;
73113;SDS011;61301;51.956;5.876;2022-07-29T04:51:54;1.40;;;0.40;;
73113;SDS011;61301;51.956;5.876;2022-07-29T04:54:20;0.60;;;0.40;;
73113;SDS011;61301;51.956;5.876;2022-07-29T04:56:46;1.20;;;0.57;;
73113;SDS011;61301;51.956;5.876;2022-07-29T04:59:12;1.38;;;0.52;;
73113;SDS011;61301;51.956;5.876;2022-07-29T05:01:38;0.70;;;0.70;;
73113;SDS011;61301;51.956;5.876;2022-07-29T05:04:04;1.05;;;0.80;;
73113;SDS011;61301;51.956;5.876;2022-07-29T05:06:30;3.90;;;1.20;;
73113;SDS011;61301;51.956;5.876;2022-07-29T05:08:56;0.77;;;0.77;;
73113;SDS011;61301;51.956;5.876;2022-07-29T05:11:21;1.83;;;0.90;;
73113;SDS011;61301;51.956;5.876;2022-07-29T05:13:47;2.25;;;0.70;;
73113;SDS011;61301;51.956;5.876;2022-07-29T05:16:13;0.70;;;0.70;;
73113;SDS011;61301;51.956;5.876;2022-07-29T05:18:39;1.13;;;0.77;;
73113;SDS011;61301;51.956;5.876;2022-07-29T05:21:06;1.17;;;0.47;;
73113;SDS011;61301;51.956;5.876;2022-07-29T05:23:32;2.53;;;0.82;;
73113;SDS011;61301;51.956;5.876;2022-07-29T05:25:58;1.58;;;0.90;;
73113;SDS011;61301;51.956;5.876;2022-07-29T05:28:24;2.35;;;1.20;;
73113;SDS011;61301;51.956;5.876;2022-07-29T05:30:50;3.08;;;2.03;;
73113;SDS011;61301;51.956;5.876;2022-07-29T05:33:16;3.45;;;1.60;;
73113;SDS011;61301;51.956;5.876;2022-07-29T05:35:42;3.38;;;1.98;;
73113;SDS011;61301;51.956;5.876;2022-07-29T05:38:07;2.47;;;1.63;;
73113;SDS011;61301;51.956;5.876;2022-07-29T05:40:33;3.22;;;1.70;;
73113;SDS011;61301;51.956;5.876;2022-07-29T05:42:59;4.95;;;2.22;;
73113;SDS011;61301;51.956;5.876;2022-07-29T05:45:25;5.65;;;2.75;;
73113;SDS011;61301;51.956;5.876;2022-07-29T05:47:51;3.05;;;2.33;;
73113;SDS011;61301;51.956;5.876;2022-07-29T05:50:17;3.50;;;1.60;;
73113;SDS011;61301;51.956;5.876;2022-07-29T05:52:43;5.03;;;2.25;;
73113;SDS011;61301;51.956;5.876;2022-07-29T05:55:09;3.67;;;1.75;;
73113;SDS011;61301;51.956;5.876;2022-07-29T05:57:36;2.53;;;1.48;;
73113;SDS011;61301;51.956;5.876;2022-07-29T06:00:02;4.30;;;1.80;;
73113;SDS011;61301;51.956;5.876;2022-07-29T06:02:38;3.65;;;2.22;;
73113;SDS011;61301;51.956;5.876;2022-07-29T06:05:04;3.47;;;2.00;;
73113;SDS011;61301;51.956;5.876;2022-07-29T06:07:30;3.53;;;1.60;;
73113;SDS011;61301;51.956;5.876;2022-07-29T06:09:58;2.60;;;1.60;;
73113;SDS011;61301;51.956;5.876;2022-07-29T06:12:24;2.78;;;1.95;;
73113;SDS011;61301;51.956;5.876;2022-07-29T06:14:50;2.42;;;1.58;;
73113;SDS011;61301;51.956;5.876;2022-07-29T06:17:16;1.83;;;1.45;;
73113;SDS011;61301;51.956;5.876;2022-07-29T06:19:42;1.80;;;1.33;;
73113;SDS011;61301;51.956;5.876;2022-07-29T06:22:08;3.58;;;1.65;;
73113;SDS011;61301;51.956;5.876;2022-07-29T06:24:34;2.80;;;1.15;;
73113;SDS011;61301;51.956;5.876;2022-07-29T06:27:02;3.78;;;1.60;;
73113;SDS011;61301;51.956;5.876;2022-07-29T06:29:28;5.43;;;2.20;;
73113;SDS011;61301;51.956;5.876;2022-07-29T06:31:54;3.28;;;2.00;;
73113;SDS011;61301;51.956;5.876;2022-07-29T06:34:20;2.67;;;1.20;;
73113;SDS011;61301;51.956;5.876;2022-07-29T06:36:46;2.47;;;1.23;;
73113;SDS011;61301;51.956;5.876;2022-07-29T06:39:12;2.15;;;1.40;;
73113;SDS011;61301;51.956;5.876;2022-07-29T06:41:38;1.80;;;1.20;;
73113;SDS011;61301;51.956;5.876;2022-07-29T06:44:08;1.75;;;0.80;;
73113;SDS011;61301;51.956;5.876;2022-07-29T06:46:37;2.30;;;1.60;;
73113;SDS011;61301;51.956;5.876;2022-07-29T06:49:03;1.65;;;0.93;;
73113;SDS011;61301;51.956;5.876;2022-07-29T06:51:30;2.83;;;0.90;;
73113;SDS011;61301;51.956;5.876;2022-07-29T06:53:56;3.50;;;2.10;;
73113;SDS011;61301;51.956;5.876;2022-07-29T06:56:26;2.63;;;1.30;;
73113;SDS011;61301;51.956;5.876;2022-07-29T06:58:52;1.27;;;0.70;;
73113;SDS011;61301;51.956;5.876;2022-07-29T07:01:18;1.30;;;0.98;;
73113;SDS011;61301;51.956;5.876;2022-07-29T07:03:45;1.52;;;0.85;;
73113;SDS011;61301;51.956;5.876;2022-07-29T07:06:11;1.60;;;1.05;;
73113;SDS011;61301;51.956;5.876;2022-07-29T07:08:37;2.22;;;1.27;;
73113;SDS011;61301;51.956;5.876;2022-07-29T07:11:03;1.48;;;0.88;;
73113;SDS011;61301;51.956;5.876;2022-07-29T07:13:29;0.82;;;0.45;;
73113;SDS011;61301;51.956;5.876;2022-07-29T07:16:00;1.58;;;1.00;;
73113;SDS011;61301;51.956;5.876;2022-07-29T07:18:27;0.98;;;0.85;;
73113;SDS011;61301;51.956;5.876;2022-07-29T07:20:53;0.73;;;0.60;;
73113;SDS011;61301;51.956;5.876;2022-07-29T07:23:19;0.73;;;0.60;;
73113;SDS011;61301;51.956;5.876;2022-07-29T07:25:45;0.50;;;0.30;;
73113;SDS011;61301;51.956;5.876;2022-07-29T07:28:11;2.55;;;0.60;;
73113;SDS011;61301;51.956;5.876;2022-07-29T07:30:37;2.05;;;1.00;;
73113;SDS011;61301;51.956;5.876;2022-07-29T07:33:03;0.70;;;0.40;;
73113;SDS011;61301;51.956;5.876;2022-07-29T07:35:30;2.08;;;0.70;;
73113;SDS011;61301;51.956;5.876;2022-07-29T07:37:56;3.38;;;1.23;;
73113;SDS011;61301;51.956;5.876;2022-07-29T07:40:22;1.52;;;0.60;;
73113;SDS011;61301;51.956;5.876;2022-07-29T07:42:49;0.98;;;0.80;;
73113;SDS011;61301;51.956;5.876;2022-07-29T07:45:15;1.27;;;0.70;;
73113;SDS011;61301;51.956;5.876;2022-07-29T07:47:41;1.17;;;0.60;;
73113;SDS011;61301;51.956;5.876;2022-07-29T07:50:08;1.75;;;0.95;;
73113;SDS011;61301;51.956;5.876;2022-07-29T07:52:45;1.58;;;0.73;;
73113;SDS011;61301;51.956;5.876;2022-07-29T07:55:12;0.40;;;0.40;;
73113;SDS011;61301;51.956;5.876;2022-07-29T07:57:38;2.60;;;1.30;;
73113;SDS011;61301;51.956;5.876;2022-07-29T08:00:04;0.57;;;0.57;;
73113;SDS011;61301;51.956;5.876;2022-07-29T08:02:38;0.55;;;0.30;;
73113;SDS011;61301;51.956;5.876;2022-07-29T08:05:05;0.95;;;0.50;;
73113;SDS011;61301;51.956;5.876;2022-07-29T08:07:32;0.30;;;0.30;;
73113;SDS011;61301;51.956;5.876;2022-07-29T08:09:59;0.65;;;0.50;;
73113;SDS011;61301;51.956;5.876;2022-07-29T08:12:25;0.93;;;0.70;;
73113;SDS011;61301;51.956;5.876;2022-07-29T08:14:51;0.90;;;0.82;;
73113;SDS011;61301;51.956;5.876;2022-07-29T08:17:17;2.63;;;1.10;;
73113;SDS011;61301;51.956;5.876;2022-07-29T08:19:43;0.70;;;0.70;;
73113;SDS011;61301;51.956;5.876;2022-07-29T08:22:08;1.13;;;0.70;;
73113;SDS011;61301;51.956;5.876;2022-07-29T08:24:35;1.40;;;0.70;;
73113;SDS011;61301;51.956;5.876;2022-07-29T08:27:18;0.80;;;0.40;;
73113;SDS011;61301;51.956;5.876;2022-07-29T08:29:45;2.17;;;1.02;;
73113;SDS011;61301;51.956;5.876;2022-07-29T08:32:11;2.00;;;1.00;;
73113;SDS011;61301;51.956;5.876;2022-07-29T08:34:37;1.00;;;0.70;;
73113;SDS011;61301;51.956;5.876;2022-07-29T08:37:03;1.38;;;0.70;;
73113;SDS011;61301;51.956;5.876;2022-07-29T08:39:29;0.80;;;0.57;;
73113;SDS011;61301;51.956;5.876;2022-07-29T08:41:55;1.08;;;0.60;;
73113;SDS011;61301;51.956;5.876;2022-07-29T08:44:21;2.38;;;0.70;;
73113;SDS011;61301;51.956;5.876;2022-07-29T08:46:48;0.80;;;0.43;;
73113;SDS011;61301;51.956;5.876;2022-07-29T08:49:15;2.28;;;0.77;;
73113;SDS011;61301;51.956;5.876;2022-07-29T08:51:42;1.10;;;0.77;;
73113;SDS011;61301;51.956;5.876;2022-07-29T08:54:09;2.42;;;0.95;;
73113;SDS011;61301;51.956;5.876;2022-07-29T08:56:36;2.55;;;0.60;;
73113;SDS011;61301;51.956;5.876;2022-07-29T08:59:03;0.73;;;0.50;;
73113;SDS011;61301;51.956;5.876;2022-07-29T09:01:32;0.80;;;0.50;;
73113;SDS011;61301;51.956;5.876;2022-07-29T09:03:59;1.23;;;0.70;;
73113;SDS011;61301;51.956;5.876;2022-07-29T09:06:30;2.28;;;0.85;;
73113;SDS011;61301;51.956;5.876;2022-07-29T09:08:59;1.80;;;0.60;;
73113;SDS011;61301;51.956;5.876;2022-07-29T09:11:26;1.13;;;0.70;;
73113;SDS011;61301;51.956;5.876;2022-07-29T09:13:52;2.03;;;0.90;;
73113;SDS011;61301;51.956;5.876;2022-07-29T09:16:18;0.75;;;0.68;;
73113;SDS011;61301;51.956;5.876;2022-07-29T09:18:45;2.33;;;0.90;;
73113;SDS011;61301;51.956;5.876;2022-07-29T09:21:12;1.00;;;0.88;;
73113;SDS011;61301;51.956;5.876;2022-07-29T09:26:30;2.03;;;0.90;;
73113;SDS011;61301;51.956;5.876;2022-07-29T09:28:57;2.25;;;0.80;;
73113;SDS011;61301;51.956;5.876;2022-07-29T09:31:35;1.65;;;1.25;;
73113;SDS011;61301;51.956;5.876;2022-07-29T09:34:03;2.88;;;1.55;;
73113;SDS011;61301;51.956;5.876;2022-07-29T09:36:30;2.30;;;1.65;;
73113;SDS011;61301;51.956;5.876;2022-07-29T09:38:59;2.15;;;0.90;;
73113;SDS011;61301;51.956;5.876;2022-07-29T09:41:28;2.03;;;1.00;;
73113;SDS011;61301;51.956;5.876;2022-07-29T09:43:59;0.80;;;0.80;;
73113;SDS011;61301;51.956;5.876;2022-07-29T09:46:25;2.15;;;1.20;;
73113;SDS011;61301;51.956;5.876;2022-07-29T09:49:10;1.80;;;0.85;;
73113;SDS011;61301;51.956;5.876;2022-07-29T09:51:38;3.15;;;1.60;;
73113;SDS011;61301;51.956;5.876;2022-07-29T09:54:23;2.08;;;1.50;;
73113;SDS011;61301;51.956;5.876;2022-07-29T09:56:51;4.00;;;1.55;;
73113;SDS011;61301;51.956;5.876;2022-07-29T09:59:18;2.80;;;1.95;;
73113;SDS011;61301;51.956;5.876;2022-07-29T10:01:52;2.63;;;1.40;;
73113;SDS011;61301;51.956;5.876;2022-07-29T10:04:18;2.97;;;1.92;;
73113;SDS011;61301;51.956;5.876;2022-07-29T10:06:57;2.65;;;1.42;;
73113;SDS011;61301;51.956;5.876;2022-07-29T10:09:25;4.18;;;2.72;;
73113;SDS011;61301;51.956;5.876;2022-07-29T10:14:36;3.72;;;1.75;;
73113;SDS011;61301;51.956;5.876;2022-07-29T10:17:03;1.88;;;1.10;;
73113;SDS011;61301;51.956;5.876;2022-07-29T10:19:30;2.90;;;1.27;;
73113;SDS011;61301;51.956;5.876;2022-07-29T10:21:58;1.00;;;0.88;;
73113;SDS011;61301;51.956;5.876;2022-07-29T10:24:26;4.40;;;2.03;;
73113;SDS011;61301;51.956;5.876;2022-07-29T10:26:56;3.15;;;1.65;;
73113;SDS011;61301;51.956;5.876;2022-07-29T10:29:23;5.47;;;2.00;;
73113;SDS011;61301;51.956;5.876;2022-07-29T10:43:41;3.33;;;1.17;;
73113;SDS011;61301;51.956;5.876;2022-07-29T10:46:10;2.58;;;1.80;;
73113;SDS011;61301;51.956;5.876;2022-07-29T10:54:40;2.25;;;1.00;;
73113;SDS011;61301;51.956;5.876;2022-07-29T10:57:21;2.85;;;1.48;;
73113;SDS011;61301;51.956;5.876;2022-07-29T11:05:17;2.25;;;1.40;;
73113;SDS011;61301;51.956;5.876;2022-07-29T11:10:37;2.85;;;1.70;;
73113;SDS011;61301;51.956;5.876;2022-07-29T11:13:04;4.68;;;1.65;;
73113;SDS011;61301;51.956;5.876;2022-07-29T11:15:51;1.83;;;1.20;;
73113;SDS011;61301;51.956;5.876;2022-07-29T11:18:23;2.10;;;1.40;;
73113;SDS011;61301;51.956;5.876;2022-07-29T11:20:49;4.45;;;1.85;;
73113;SDS011;61301;51.956;5.876;2022-07-29T11:28:42;2.80;;;1.30;;
73113;SDS011;61301;51.956;5.876;2022-07-29T11:31:14;3.65;;;1.40;;
73113;SDS011;61301;51.956;5.876;2022-07-29T11:33:44;2.88;;;1.38;;
73113;SDS011;61301;51.956;5.876;2022-07-29T11:36:12;2.40;;;1.20;;
73113;SDS011;61301;51.956;5.876;2022-07-29T11:38:39;3.03;;;1.20;;
73113;SDS011;61301;51.956;5.876;2022-07-29T11:41:22;3.58;;;1.10;;
73113;SDS011;61301;51.956;5.876;2022-07-29T11:43:49;3.58;;;1.20;;
73113;SDS011;61301;51.956;5.876;2022-07-29T11:46:41;2.50;;;1.10;;
73113;SDS011;61301;51.956;5.876;2022-07-29T11:49:21;2.90;;;1.33;;
73113;SDS011;61301;51.956;5.876;2022-07-29T11:51:52;2.35;;;1.17;;
73113;SDS011;61301;51.956;5.876;2022-07-29T11:54:23;3.30;;;1.92;;
73113;SDS011;61301;51.956;5.876;2022-07-29T11:56:57;4.72;;;1.70;;
73113;SDS011;61301;51.956;5.876;2022-07-29T11:59:24;2.80;;;1.48;;
73113;SDS011;61301;51.956;5.876;2022-07-29T12:01:57;1.95;;;1.10;;
73113;SDS011;61301;51.956;5.876;2022-07-29T12:04:24;2.90;;;1.63;;
73113;SDS011;61301;51.956;5.876;2022-07-29T12:06:52;1.65;;;0.90;;
73113;SDS011;61301;51.956;5.876;2022-07-29T12:09:19;1.95;;;1.40;;
73113;SDS011;61301;51.956;5.876;2022-07-29T12:11:47;2.38;;;1.40;;
73113;SDS011;61301;51.956;5.876;2022-07-29T12:16:56;1.27;;;0.80;;
73113;SDS011;61301;51.956;5.876;2022-07-29T12:19:22;3.03;;;1.67;;
73113;SDS011;61301;51.956;5.876;2022-07-29T12:21:49;4.57;;;1.92;;
73113;SDS011;61301;51.956;5.876;2022-07-29T12:24:17;2.03;;;1.23;;
73113;SDS011;61301;51.956;5.876;2022-07-29T12:29:17;1.48;;;1.10;;
73113;SDS011;61301;51.956;5.876;2022-07-29T12:31:44;1.10;;;0.80;;
73113;SDS011;61301;51.956;5.876;2022-07-29T12:34:12;3.47;;;1.50;;
73113;SDS011;61301;51.956;5.876;2022-07-29T12:36:41;1.30;;;1.05;;
73113;SDS011;61301;51.956;5.876;2022-07-29T12:39:07;2.85;;;1.30;;
73113;SDS011;61301;51.956;5.876;2022-07-29T12:41:34;1.52;;;1.08;;
73113;SDS011;61301;51.956;5.876;2022-07-29T12:44:01;1.38;;;0.63;;
73113;SDS011;61301;51.956;5.876;2022-07-29T12:46:27;1.42;;;0.77;;
73113;SDS011;61301;51.956;5.876;2022-07-29T12:48:53;2.88;;;1.40;;
73113;SDS011;61301;51.956;5.876;2022-07-29T12:51:30;3.17;;;1.42;;
73113;SDS011;61301;51.956;5.876;2022-07-29T12:54:07;3.47;;;1.20;;
73113;SDS011;61301;51.956;5.876;2022-07-29T12:56:42;2.88;;;1.60;;
73113;SDS011;61301;51.956;5.876;2022-07-29T13:01:45;1.00;;;0.90;;
73113;SDS011;61301;51.956;5.876;2022-07-29T13:04:26;1.63;;;1.10;;
73113;SDS011;61301;51.956;5.876;2022-07-29T13:07:12;2.17;;;1.30;;
73113;SDS011;61301;51.956;5.876;2022-07-29T13:09:40;1.92;;;1.30;;
73113;SDS011;61301;51.956;5.876;2022-07-29T13:12:13;2.83;;;1.83;;
73113;SDS011;61301;51.956;5.876;2022-07-29T13:14:41;6.28;;;1.42;;
73113;SDS011;61301;51.956;5.876;2022-07-29T13:17:09;3.92;;;1.35;;
73113;SDS011;61301;51.956;5.876;2022-07-29T13:20:04;2.28;;;1.20;;
73113;SDS011;61301;51.956;5.876;2022-07-29T13:22:31;1.88;;;1.00;;
73113;SDS011;61301;51.956;5.876;2022-07-29T13:24:58;4.13;;;1.52;;
73113;SDS011;61301;51.956;5.876;2022-07-29T13:27:29;1.35;;;0.90;;
73113;SDS011;61301;51.956;5.876;2022-07-29T13:29:58;2.92;;;1.38;;
73113;SDS011;61301;51.956;5.876;2022-07-29T13:32:25;1.40;;;0.85;;
73113;SDS011;61301;51.956;5.876;2022-07-29T13:34:53;4.13;;;1.83;;
73113;SDS011;61301;51.956;5.876;2022-07-29T13:37:21;1.88;;;1.10;;
73113;SDS011;61301;51.956;5.876;2022-07-29T13:39:47;2.58;;;1.33;;
73113;SDS011;61301;51.956;5.876;2022-07-29T13:42:13;3.60;;;1.10;;
73113;SDS011;61301;51.956;5.876;2022-07-29T13:44:40;2.85;;;1.38;;
73113;SDS011;61301;51.956;5.876;2022-07-29T13:47:06;3.15;;;1.20;;
73113;SDS011;61301;51.956;5.876;2022-07-29T13:49:33;4.20;;;1.20;;
73113;SDS011;61301;51.956;5.876;2022-07-29T13:52:00;1.80;;;1.05;;
73113;SDS011;61301;51.956;5.876;2022-07-29T13:54:26;2.13;;;1.20;;
73113;SDS011;61301;51.956;5.876;2022-07-29T13:56:52;3.05;;;1.63;;
73113;SDS011;61301;51.956;5.876;2022-07-29T13:59:18;2.92;;;1.30;;
73113;SDS011;61301;51.956;5.876;2022-07-29T14:01:44;1.15;;;1.05;;
73113;SDS011;61301;51.956;5.876;2022-07-29T14:04:11;1.02;;;0.80;;
73113;SDS011;61301;51.956;5.876;2022-07-29T14:06:37;1.73;;;0.98;;
73113;SDS011;61301;51.956;5.876;2022-07-29T14:09:03;3.03;;;1.08;;
73113;SDS011;61301;51.956;5.876;2022-07-29T14:11:32;2.42;;;0.98;;
73113;SDS011;61301;51.956;5.876;2022-07-29T14:13:58;1.77;;;1.10;;
73113;SDS011;61301;51.956;5.876;2022-07-29T14:16:24;1.90;;;0.93;;
73113;SDS011;61301;51.956;5.876;2022-07-29T14:18:50;2.55;;;1.27;;
73113;SDS011;61301;51.956;5.876;2022-07-29T14:21:16;2.22;;;1.30;;
73113;SDS011;61301;51.956;5.876;2022-07-29T14:23:42;3.20;;;1.30;;
73113;SDS011;61301;51.956;5.876;2022-07-29T14:26:08;2.08;;;1.00;;
73113;SDS011;61301;51.956;5.876;2022-07-29T14:28:34;3.50;;;1.30;;
73113;SDS011;61301;51.956;5.876;2022-07-29T14:31:00;4.13;;;1.33;;
73113;SDS011;61301;51.956;5.876;2022-07-29T14:33:26;2.78;;;1.10;;
73113;SDS011;61301;51.956;5.876;2022-07-29T14:35:52;1.80;;;1.20;;
73113;SDS011;61301;51.956;5.876;2022-07-29T14:38:18;2.35;;;0.90;;
73113;SDS011;61301;51.956;5.876;2022-07-29T14:40:44;1.40;;;0.90;;
73113;SDS011;61301;51.956;5.876;2022-07-29T14:43:12;2.70;;;1.20;;
73113;SDS011;61301;51.956;5.876;2022-07-29T14:45:39;1.95;;;1.17;;
73113;SDS011;61301;51.956;5.876;2022-07-29T14:48:05;1.00;;;0.90;;
73113;SDS011;61301;51.956;5.876;2022-07-29T14:50:31;2.28;;;0.90;;
73113;SDS011;61301;51.956;5.876;2022-07-29T14:52:58;2.20;;;0.70;;
73113;SDS011;61301;51.956;5.876;2022-07-29T14:55:24;1.50;;;0.77;;
73113;SDS011;61301;51.956;5.876;2022-07-29T14:57:51;2.80;;;1.23;;
73113;SDS011;61301;51.956;5.876;2022-07-29T15:00:17;1.10;;;0.60;;
73113;SDS011;61301;51.956;5.876;2022-07-29T15:02:43;1.65;;;0.93;;
73113;SDS011;61301;51.956;5.876;2022-07-29T15:05:09;0.60;;;0.50;;
73113;SDS011;61301;51.956;5.876;2022-07-29T15:07:35;0.88;;;0.60;;
73113;SDS011;61301;51.956;5.876;2022-07-29T15:10:01;1.02;;;0.80;;
73113;SDS011;61301;51.956;5.876;2022-07-29T15:12:30;0.80;;;0.60;;
73113;SDS011;61301;51.956;5.876;2022-07-29T15:14:57;0.82;;;0.60;;
73113;SDS011;61301;51.956;5.876;2022-07-29T15:17:23;1.65;;;0.80;;
73113;SDS011;61301;51.956;5.876;2022-07-29T15:19:49;1.85;;;1.00;;
73113;SDS011;61301;51.956;5.876;2022-07-29T15:22:15;1.00;;;0.60;;
73113;SDS011;61301;51.956;5.876;2022-07-29T15:24:41;1.05;;;0.90;;
73113;SDS011;61301;51.956;5.876;2022-07-29T15:27:07;2.42;;;1.10;;
73113;SDS011;61301;51.956;5.876;2022-07-29T15:29:42;1.08;;;0.70;;
73113;SDS011;61301;51.956;5.876;2022-07-29T15:32:09;4.35;;;0.90;;
73113;SDS011;61301;51.956;5.876;2022-07-29T15:34:35;1.27;;;0.68;;
73113;SDS011;61301;51.956;5.876;2022-07-29T15:37:02;2.25;;;0.80;;
73113;SDS011;61301;51.956;5.876;2022-07-29T15:39:28;2.65;;;1.10;;
73113;SDS011;61301;51.956;5.876;2022-07-29T15:41:54;2.47;;;1.00;;
73113;SDS011;61301;51.956;5.876;2022-07-29T15:44:20;1.85;;;1.10;;
73113;SDS011;61301;51.956;5.876;2022-07-29T15:46:47;1.90;;;1.10;;
73113;SDS011;61301;51.956;5.876;2022-07-29T15:49:29;4.18;;;1.10;;
73113;SDS011;61301;51.956;5.876;2022-07-29T15:51:59;10.85;;;1.48;;